createdAt,value
2023-09-17T04:01:30.574Z,9.60
2023-09-17T04:03:58.049Z,9.30
2023-09-17T04:06:25.683Z,9.10
2023-09-17T04:08:52.623Z,10.70
2023-09-17T04:11:20.081Z,10.30
2023-09-17T04:13:47.480Z,8.90
2023-09-17T04:16:17.116Z,9.00
2023-09-17T04:18:44.394Z,8.20
2023-09-17T04:21:11.253Z,10.90
2023-09-17T04:23:38.077Z,9.70
2023-09-17T04:26:05.027Z,9.70
2023-09-17T04:28:32.154Z,9.30
2023-09-17T04:30:59.213Z,9.60
2023-09-17T04:33:26.428Z,10.60
2023-09-17T04:35:57.942Z,9.60
2023-09-17T04:38:25.184Z,10.60
2023-09-17T04:40:52.169Z,10.10
2023-09-17T04:43:20.981Z,10.90
2023-09-17T04:45:49.152Z,9.30
2023-09-17T04:48:31.612Z,8.60
2023-09-17T04:50:58.683Z,9.60
2023-09-17T04:53:26.006Z,11.20
2023-09-17T04:55:55.125Z,9.10
2023-09-17T04:58:26.299Z,10.00
2023-09-17T05:00:56.490Z,10.00
2023-09-17T05:03:23.863Z,10.10
2023-09-17T05:05:51.789Z,12.00
2023-09-17T05:08:19.176Z,10.20
2023-09-17T05:10:46.698Z,11.20
2023-09-17T05:13:13.644Z,10.30
2023-09-17T05:15:41.590Z,9.20
2023-09-17T05:18:12.156Z,9.70
2023-09-17T05:20:45.075Z,10.20
2023-09-17T05:23:13.155Z,8.90
2023-09-17T05:25:40.382Z,9.60
2023-09-17T05:28:08.200Z,11.70
2023-09-17T05:30:35.685Z,9.20
2023-09-17T05:33:04.964Z,10.50
2023-09-17T05:35:33.339Z,13.30
2023-09-17T05:38:00.956Z,9.70
2023-09-17T05:40:28.139Z,9.40
2023-09-17T05:43:00.047Z,8.60
2023-09-17T05:45:27.711Z,8.30
2023-09-17T05:47:55.313Z,8.20
2023-09-17T05:50:23.753Z,8.60
2023-09-17T05:52:51.087Z,8.70
2023-09-17T05:55:18.367Z,10.20
2023-09-17T05:57:47.048Z,8.00
2023-09-17T06:00:14.700Z,8.00
2023-09-17T06:02:43.309Z,8.60
2023-09-17T06:05:12.202Z,9.80
2023-09-17T06:07:39.207Z,7.70
2023-09-17T06:10:07.390Z,7.80
2023-09-17T06:12:34.543Z,6.70
2023-09-17T06:15:03.343Z,8.00
2023-09-17T06:17:30.330Z,7.20
2023-09-17T06:19:57.486Z,7.90
2023-09-17T06:22:26.103Z,7.70
2023-09-17T06:24:56.850Z,9.00
2023-09-17T06:27:24.076Z,6.80
2023-09-17T06:29:51.492Z,6.20
2023-09-17T06:32:20.472Z,7.00
2023-09-17T06:34:48.145Z,6.30
2023-09-17T06:37:16.280Z,9.20
2023-09-17T06:39:43.849Z,5.80
2023-09-17T06:42:12.244Z,5.70
2023-09-17T06:44:40.508Z,5.80
2023-09-17T06:47:08.964Z,6.60
2023-09-17T06:49:36.365Z,6.70
2023-09-17T06:52:04.104Z,5.60
2023-09-17T06:54:31.670Z,7.20
2023-09-17T06:56:58.951Z,6.20
2023-09-17T06:59:27.891Z,6.60
2023-09-17T07:02:10.423Z,6.40
2023-09-17T07:04:38.547Z,5.70
2023-09-17T07:07:07.622Z,5.70
2023-09-17T07:09:36.778Z,6.20
2023-09-17T07:12:05.502Z,5.00
2023-09-17T07:14:34.110Z,5.80
2023-09-17T07:17:02.588Z,5.50
2023-09-17T07:19:35.455Z,7.30
2023-09-17T07:22:13.150Z,7.60
2023-09-17T07:24:42.922Z,5.10
2023-09-17T07:27:11.420Z,6.10
2023-09-17T07:29:38.971Z,5.70
2023-09-17T07:32:08.045Z,5.30
2023-09-17T07:34:37.052Z,5.30
2023-09-17T07:37:05.542Z,5.90
2023-09-17T07:39:32.933Z,5.60
2023-09-17T07:42:00.236Z,4.90
2023-09-17T07:44:27.579Z,5.80
2023-09-17T07:46:55.868Z,5.60
2023-09-17T07:49:27.852Z,5.60
2023-09-17T07:51:57.444Z,5.90
2023-09-17T07:54:25.300Z,5.20
2023-09-17T07:56:53.174Z,5.70
2023-09-17T07:59:20.441Z,5.10
2023-09-17T08:01:51.205Z,5.40
2023-09-17T08:04:18.795Z,5.60
2023-09-17T08:06:47.823Z,5.30
2023-09-17T08:09:16.086Z,6.50
2023-09-17T08:11:44.470Z,5.20
2023-09-17T08:14:12.165Z,5.50
2023-09-17T08:16:40.267Z,5.40
2023-09-17T08:19:08.931Z,6.10
2023-09-17T08:21:36.955Z,7.00
2023-09-17T08:24:06.629Z,5.90
2023-09-17T08:26:35.054Z,5.90
2023-09-17T08:29:06.273Z,6.80
2023-09-17T08:31:35.514Z,4.90
2023-09-17T08:34:04.298Z,4.50
2023-09-17T08:36:33.266Z,5.90
2023-09-17T08:39:00.316Z,6.10
2023-09-17T08:41:28.596Z,5.70
2023-09-17T08:43:56.321Z,4.60
2023-09-17T08:46:27.477Z,5.20
2023-09-17T08:48:55.704Z,4.60
2023-09-17T08:51:25.407Z,5.40
2023-09-17T08:54:18.376Z,6.50
2023-09-17T08:56:47.132Z,4.40
2023-09-17T08:59:22.986Z,4.50
2023-09-17T09:01:52.593Z,6.20
2023-09-17T09:04:23.494Z,5.10
2023-09-17T09:06:52.789Z,5.10
2023-09-17T09:09:24.530Z,5.70
2023-09-17T09:11:53.204Z,5.80
2023-09-17T09:14:21.866Z,4.30
2023-09-17T09:16:56.879Z,5.80
2023-09-17T09:19:24.983Z,4.50
2023-09-17T09:21:56.258Z,5.10
2023-09-17T09:24:35.693Z,4.50
2023-09-17T09:27:06.527Z,5.70
2023-09-17T09:29:36.850Z,5.00
2023-09-17T09:32:05.630Z,6.90
2023-09-17T09:34:33.101Z,5.00
2023-09-17T09:37:04.881Z,5.30
2023-09-17T09:39:32.888Z,6.10
2023-09-17T09:42:00.721Z,5.50
2023-09-17T09:44:31.173Z,4.40
2023-09-17T09:47:00.066Z,4.10
2023-09-17T09:49:27.918Z,4.50
2023-09-17T09:51:59.740Z,4.30
2023-09-17T09:54:26.632Z,5.00
2023-09-17T09:56:53.623Z,4.50
2023-09-17T09:59:21.057Z,4.30
2023-09-17T10:01:48.460Z,5.60
2023-09-17T10:04:15.899Z,4.30
2023-09-17T10:06:43.566Z,4.40
2023-09-17T10:09:11.634Z,4.80
2023-09-17T10:11:39.464Z,4.30
2023-09-17T10:14:07.314Z,4.30
2023-09-17T10:16:38.874Z,4.50
2023-09-17T10:19:09.223Z,5.70
2023-09-17T10:21:39.091Z,5.50
2023-09-17T10:24:09.311Z,4.70
2023-09-17T10:26:43.058Z,4.30
2023-09-17T10:29:12.265Z,4.50
2023-09-17T10:31:47.141Z,3.80
2023-09-17T10:34:20.028Z,5.20
2023-09-17T10:36:51.173Z,4.60
2023-09-17T10:39:20.541Z,4.70
2023-09-17T10:41:50.745Z,5.20
2023-09-17T10:44:20.992Z,6.20
2023-09-17T10:46:51.384Z,5.10
2023-09-17T10:49:26.754Z,4.20
2023-09-17T10:51:59.193Z,4.90
2023-09-17T10:54:30.986Z,4.30
2023-09-17T10:57:07.202Z,4.20
2023-09-17T10:59:39.808Z,4.10
2023-09-17T11:02:16.972Z,4.10
2023-09-17T11:04:46.578Z,3.90
2023-09-17T11:07:21.322Z,4.00
2023-09-17T11:09:51.878Z,4.70
2023-09-17T11:12:24.990Z,4.30
2023-09-17T11:15:00.199Z,3.90
2023-09-17T11:17:37.483Z,5.10
2023-09-17T11:20:17.440Z,5.00
2023-09-17T11:22:57.208Z,3.60
2023-09-17T11:25:43.923Z,4.70
2023-09-17T11:28:18.103Z,3.80
2023-09-17T11:31:02.359Z,6.00
2023-09-17T11:33:37.780Z,4.70
2023-09-17T11:36:08.639Z,5.60
2023-09-17T11:38:36.324Z,3.80
2023-09-17T11:41:38.310Z,4.70
2023-09-17T11:44:12.382Z,4.20
2023-09-17T11:46:47.050Z,3.30
2023-09-17T11:49:19.624Z,4.50
2023-09-17T11:51:58.767Z,3.90
2023-09-17T11:54:39.548Z,3.40
2023-09-17T11:57:08.902Z,4.40
2023-09-17T11:59:40.260Z,3.90
2023-09-17T12:02:09.516Z,4.60
2023-09-17T12:04:42.395Z,3.90
2023-09-17T12:07:14.272Z,4.20
2023-09-17T12:10:04.004Z,4.60
2023-09-17T12:12:36.113Z,4.00
2023-09-17T12:15:14.408Z,3.70
2023-09-17T12:17:45.845Z,5.10
2023-09-17T12:21:02.550Z,5.80
2023-09-17T12:24:07.147Z,4.10
2023-09-17T12:27:25.920Z,3.80
2023-09-17T12:29:57.377Z,3.30
2023-09-17T12:32:29.612Z,4.10
2023-09-17T12:34:59.578Z,3.50
2023-09-17T12:37:28.715Z,4.80
2023-09-17T12:39:57.277Z,5.30
2023-09-17T12:42:25.768Z,3.50
2023-09-17T12:44:55.107Z,4.30
2023-09-17T12:47:25.627Z,4.30
2023-09-17T12:49:56.452Z,4.10
2023-09-17T12:52:25.058Z,4.20
2023-09-17T12:54:54.330Z,3.30
2023-09-17T12:57:23.415Z,4.80
2023-09-17T12:59:51.837Z,4.70
2023-09-17T13:02:29.494Z,4.30
2023-09-17T13:04:57.925Z,3.60
2023-09-17T13:07:30.900Z,5.70
2023-09-17T13:09:59.723Z,3.20
2023-09-17T13:12:28.390Z,4.90
2023-09-17T13:14:56.533Z,3.30
2023-09-17T13:17:27.037Z,4.90
2023-09-17T13:19:56.984Z,3.30
2023-09-17T13:22:24.472Z,3.90
2023-09-17T13:24:51.817Z,4.00
2023-09-17T13:27:20.563Z,4.90
2023-09-17T13:29:54.324Z,4.60
2023-09-17T13:32:22.023Z,3.60
2023-09-17T13:34:51.034Z,3.40
2023-09-17T13:37:19.149Z,4.60
2023-09-17T13:39:53.097Z,3.70
2023-09-17T13:42:21.988Z,3.80
2023-09-17T13:44:50.991Z,3.60
2023-09-17T13:47:19.548Z,3.10
2023-09-17T13:49:48.206Z,4.10
2023-09-17T13:52:16.965Z,3.90
2023-09-17T13:54:44.945Z,5.70
2023-09-17T13:57:13.357Z,4.00
2023-09-17T13:59:41.840Z,4.20
2023-09-17T14:02:10.465Z,5.40
2023-09-17T14:04:39.121Z,4.50
2023-09-17T14:07:07.386Z,3.90
2023-09-17T14:09:35.292Z,4.20
2023-09-17T14:12:02.653Z,3.20
2023-09-17T14:14:29.919Z,5.60
2023-09-17T14:16:57.909Z,3.60
2023-09-17T14:19:26.198Z,3.20
2023-09-17T14:21:53.984Z,3.30
2023-09-17T14:24:21.681Z,4.60
2023-09-17T14:26:51.636Z,4.90
2023-09-17T14:29:23.366Z,3.50
2023-09-17T14:31:52.233Z,4.00
2023-09-17T14:34:20.742Z,3.90
2023-09-17T14:36:48.602Z,4.10
2023-09-17T14:39:16.678Z,3.50
2023-09-17T14:41:44.973Z,4.10
2023-09-17T14:44:13.045Z,3.70
2023-09-17T14:46:44.796Z,4.40
2023-09-17T14:49:12.543Z,4.00
2023-09-17T14:51:39.998Z,3.40
2023-09-17T14:54:11.737Z,3.60
2023-09-17T14:56:39.594Z,3.10
2023-09-17T14:59:06.564Z,3.40
2023-09-17T15:01:58.566Z,3.20
2023-09-17T15:04:22.366Z,3.80
2023-09-17T15:06:51.395Z,4.30
2023-09-17T15:09:20.445Z,4.50
2023-09-17T15:11:49.480Z,3.10
2023-09-17T15:14:20.076Z,2.80
2023-09-17T15:16:51.328Z,3.80
2023-09-17T15:19:21.160Z,5.30
2023-09-17T15:21:49.983Z,4.10
2023-09-17T15:24:20.548Z,4.80
2023-09-17T15:26:50.115Z,3.10
2023-09-17T15:29:17.787Z,4.40
2023-09-17T15:31:53.077Z,4.50
2023-09-17T15:34:29.214Z,5.20
2023-09-17T15:37:07.684Z,3.10
2023-09-17T15:39:36.824Z,4.40
2023-09-17T15:42:08.563Z,4.60
2023-09-17T15:44:38.276Z,3.70
2023-09-17T15:47:06.162Z,3.40
2023-09-17T15:49:33.381Z,3.40
2023-09-17T15:52:02.045Z,3.30
2023-09-17T15:54:31.403Z,3.90
2023-09-17T15:56:59.030Z,3.70
2023-09-17T15:59:27.304Z,3.90
2023-09-17T16:01:55.629Z,3.70
2023-09-17T16:04:24.449Z,3.60
2023-09-17T16:06:52.136Z,3.50
2023-09-17T16:09:20.750Z,3.70
2023-09-17T16:11:48.397Z,4.00
2023-09-17T16:14:16.093Z,3.10
2023-09-17T16:16:43.784Z,3.30
2023-09-17T16:19:13.830Z,4.30
2023-09-17T16:21:42.549Z,4.10
2023-09-17T16:24:12.153Z,4.30
2023-09-17T16:26:41.732Z,3.80
2023-09-17T16:29:11.964Z,4.10
2023-09-17T16:31:42.606Z,4.00
2023-09-17T16:34:12.556Z,3.90
2023-09-17T16:36:46.978Z,4.90
2023-09-17T16:39:15.924Z,3.30
2023-09-17T16:41:43.885Z,5.30
2023-09-17T16:44:11.062Z,4.40
2023-09-17T16:46:39.260Z,4.20
2023-09-17T16:49:07.715Z,5.10
2023-09-17T16:51:42.240Z,5.00
2023-09-17T16:54:10.407Z,4.70
2023-09-17T16:56:40.512Z,3.90
2023-09-17T16:59:09.164Z,5.30
2023-09-17T17:01:36.629Z,5.20
2023-09-17T17:04:04.444Z,5.50
2023-09-17T17:06:32.443Z,5.20
2023-09-17T17:09:00.053Z,4.90
2023-09-17T17:11:27.301Z,5.30
2023-09-17T17:13:55.727Z,6.40
2023-09-17T17:16:24.343Z,5.70
2023-09-17T17:18:51.924Z,5.40
2023-09-17T17:21:19.646Z,4.70
2023-09-17T17:23:51.685Z,5.20
2023-09-17T17:26:20.644Z,5.30
2023-09-17T17:28:48.668Z,5.40
2023-09-17T17:31:16.815Z,6.00
2023-09-17T17:33:45.369Z,8.70
2023-09-17T17:36:13.748Z,6.20
2023-09-17T17:38:43.035Z,6.10
2023-09-17T17:41:10.840Z,7.10
2023-09-17T17:43:39.925Z,6.60
2023-09-17T17:46:07.996Z,6.90
2023-09-17T17:48:37.189Z,6.10
2023-09-17T17:51:07.635Z,8.60
2023-09-17T17:53:36.943Z,7.10
2023-09-17T17:56:07.649Z,8.90
2023-09-17T17:58:36.271Z,8.70
2023-09-17T18:01:05.994Z,8.90
2023-09-17T18:03:34.298Z,7.80
2023-09-17T18:06:03.963Z,7.30
2023-09-17T18:08:32.717Z,6.40
2023-09-17T18:11:01.958Z,7.10
2023-09-17T18:13:37.580Z,7.00
2023-09-17T18:16:09.159Z,8.40
2023-09-17T18:18:38.007Z,6.90
2023-09-17T18:21:08.920Z,8.10
2023-09-17T18:23:39.189Z,5.90
2023-09-17T18:26:07.885Z,6.30
2023-09-17T18:28:35.513Z,6.60
2023-09-17T18:31:03.335Z,5.70
2023-09-17T18:33:33.878Z,6.60
2023-09-17T18:36:03.013Z,6.20
2023-09-17T18:38:31.000Z,7.20
2023-09-17T18:40:58.772Z,6.40
2023-09-17T18:43:27.587Z,7.80
2023-09-17T18:45:56.586Z,6.90
2023-09-17T18:48:28.397Z,5.90
2023-09-17T18:50:57.101Z,6.30
2023-09-17T18:53:25.639Z,6.10
2023-09-17T18:55:55.002Z,7.60
2023-09-17T18:58:23.634Z,5.60
2023-09-17T19:00:51.604Z,5.40
2023-09-17T19:03:21.930Z,5.60
2023-09-17T19:05:50.650Z,5.50
2023-09-17T19:08:19.182Z,6.90
2023-09-17T19:10:48.833Z,5.70
2023-09-17T19:13:18.142Z,6.90
2023-09-17T19:15:46.937Z,5.60
2023-09-17T19:18:17.894Z,8.30
2023-09-17T19:20:47.407Z,5.70
2023-09-17T19:23:16.277Z,6.00
2023-09-17T19:25:45.037Z,7.20
2023-09-17T19:28:13.202Z,7.40
2023-09-17T19:30:40.961Z,7.40
2023-09-17T19:33:09.114Z,6.80
2023-09-17T19:35:37.398Z,7.20
2023-09-17T19:38:06.111Z,7.30
2023-09-17T19:40:33.561Z,7.10
2023-09-17T19:43:01.426Z,7.30
2023-09-17T19:45:29.256Z,6.60
2023-09-17T19:47:56.904Z,9.60
2023-09-17T19:50:25.069Z,6.80
2023-09-17T19:52:56.323Z,6.90
2023-09-17T19:55:26.968Z,6.70
2023-09-17T19:57:55.104Z,8.00
2023-09-17T20:00:23.908Z,12.30
2023-09-17T20:02:53.336Z,8.50
2023-09-17T20:05:21.931Z,8.50
2023-09-17T20:07:51.305Z,6.60
2023-09-17T20:10:21.734Z,7.90
2023-09-17T20:12:50.187Z,7.40
2023-09-17T20:15:18.856Z,8.50
2023-09-17T20:17:47.254Z,7.30
2023-09-17T20:20:15.976Z,7.90
2023-09-17T20:22:46.238Z,8.80
2023-09-17T20:25:16.407Z,7.20
2023-09-17T20:27:54.121Z,8.40
2023-09-17T20:30:21.626Z,6.90
2023-09-17T20:32:49.400Z,9.10
2023-09-17T20:35:17.947Z,8.10
2023-09-17T20:37:45.924Z,6.50
2023-09-17T20:40:13.408Z,8.30
2023-09-17T20:42:41.910Z,9.10
2023-09-17T20:45:11.520Z,7.20
2023-09-17T20:47:39.119Z,8.20
2023-09-17T20:50:08.324Z,7.20
2023-09-17T20:52:37.555Z,6.60
2023-09-17T20:55:06.351Z,7.20
2023-09-17T20:57:33.905Z,7.80
2023-09-17T21:00:05.759Z,7.30
2023-09-17T21:02:33.620Z,8.30
2023-09-17T21:05:02.584Z,7.50
2023-09-17T21:07:29.869Z,6.90
2023-09-17T21:09:58.991Z,7.00
2023-09-17T21:12:28.570Z,7.50
2023-09-17T21:14:56.260Z,7.20
2023-09-17T21:17:23.429Z,7.50
2023-09-17T21:19:51.164Z,8.40
2023-09-17T21:22:18.195Z,7.60
2023-09-17T21:24:45.960Z,6.20
2023-09-17T21:27:13.319Z,7.30
2023-09-17T21:29:40.573Z,6.80
2023-09-17T21:32:07.453Z,9.30
2023-09-17T21:34:34.424Z,7.90
2023-09-17T21:37:02.736Z,8.30
2023-09-17T21:39:31.111Z,6.70
2023-09-17T21:41:58.671Z,7.50
2023-09-17T21:44:25.566Z,8.70
2023-09-17T21:46:55.977Z,7.60
2023-09-17T21:49:23.489Z,9.20
2023-09-17T21:51:50.551Z,9.20
2023-09-17T21:54:17.987Z,7.30
2023-09-17T21:56:50.491Z,8.50
2023-09-17T21:59:17.689Z,7.80
2023-09-17T22:01:48.015Z,7.40
2023-09-17T22:04:15.710Z,7.60
2023-09-17T22:06:43.070Z,8.10
2023-09-17T22:09:10.632Z,7.90
2023-09-17T22:11:37.785Z,8.30
2023-09-17T22:14:05.697Z,8.30
2023-09-17T22:16:36.163Z,8.90
2023-09-17T22:19:03.847Z,7.50
2023-09-17T22:21:30.786Z,7.60
2023-09-17T22:23:57.742Z,8.20
2023-09-17T22:26:24.817Z,8.10
2023-09-17T22:28:52.242Z,8.60
2023-09-17T22:31:21.904Z,7.60
2023-09-17T22:33:50.828Z,6.60
2023-09-17T22:36:17.786Z,7.10
2023-09-17T22:38:46.668Z,6.60
2023-09-17T22:41:20.801Z,10.50
2023-09-17T22:43:49.986Z,7.10
2023-09-17T22:46:18.722Z,8.70
2023-09-17T22:48:50.603Z,9.40
2023-09-17T22:51:19.630Z,8.20
2023-09-17T22:53:47.793Z,8.00
2023-09-17T22:56:15.045Z,8.10
2023-09-17T22:58:42.106Z,8.90
